»·PEaware :: AAL225 KPDX-KSEA

AAL225 :: KPDX-KSEA

FLIGHT INFORMATION

Flight Status: Arrived
Operator:
American Airlines
More flights by this operator :: More flights under this callsign
Pilot: Michael R. (16974)
Aircraft: AIRBUS A320
(A320)
More flights by this aircraft type
Origin: KPDX Portland Intl
United States
Destination: KSEA Seattle-Tacoma Intl
United States
More flights between these airports :: More routes between these airports
Route: +PTLD1 COUGA KRIEG HAWKZ6
File this flight plan on PilotEdge
Remarks:
Altitude:
(Current/Filed)
20,000ft
Speed:
(Current/Filed)
400kts
Departed: 02-Sep-18 07:10 PM
Arrived: 02-Sep-18 07:37 PM
Distance/Time
Traveled:
112nm/0:27
Distance/Time
To Go:
Arrived

Flight Plot

Page will automatically refresh every two minutes.

Flight plan parsing failed; only flown route is shown


Map Options




Map Legend


Flown Route
Filed Route
Departure Airport
Arrival Airport
Navaid (VOR, NDB)
Fix

Horizontal Profiles

Position Reports

Time Latitude Longitude Heading Altitude Ground
Speed
02-Sep-18 18:52 45.589439 -122.598912 42 38ft 0kts
02-Sep-18 18:53 45.589439 -122.598912 42 38ft 0kts
02-Sep-18 18:54 45.589439 -122.598912 42 38ft 0kts
02-Sep-18 18:55 45.589439 -122.598912 42 38ft 0kts
02-Sep-18 18:56 45.589439 -122.598912 42 38ft 0kts
02-Sep-18 18:57 45.589439 -122.598912 42 38ft 0kts
02-Sep-18 18:59 45.589439 -122.598912 42 38ft 0kts
02-Sep-18 18:59 45.589439 -122.598912 42 38ft 0kts
02-Sep-18 19:00 45.589439 -122.598912 42 38ft 0kts
02-Sep-18 19:01 45.589439 -122.598913 41 38ft 0kts
02-Sep-18 19:03 45.589055 -122.599412 41 38ft 2kts
02-Sep-18 19:03 45.588857 -122.599967 115 38ft 0kts
02-Sep-18 19:04 45.588897 -122.600056 119 38ft 0kts
02-Sep-18 19:06 45.588897 -122.600056 119 38ft 0kts
02-Sep-18 19:06 45.588752 -122.599694 120 38ft 7kts
02-Sep-18 19:07 45.586550 -122.594199 127 38ft 22kts
02-Sep-18 19:08 45.583046 -122.587138 118 38ft 21kts
02-Sep-18 19:09 45.581550 -122.583671 157 38ft 0kts
02-Sep-18 19:10 45.581452 -122.583625 165 38ft 9kts
02-Sep-18 19:11 45.589996 -122.608246 299 326ft 179kts
02-Sep-18 19:12 45.620159 -122.684816 299 3632ft 252kts
02-Sep-18 19:13 45.656780 -122.771624 320 7027ft 266kts
02-Sep-18 19:14 45.731294 -122.772268 6 10770ft 296kts
02-Sep-18 19:15 45.821003 -122.749097 6 13453ft 341kts
02-Sep-18 19:16 45.915794 -122.724222 6 16522ft 356kts
02-Sep-18 19:17 46.014687 -122.698011 6 19186ft 372kts
02-Sep-18 19:18 46.114176 -122.681645 348 20069ft 367kts
02-Sep-18 19:19 46.162552 -122.691265 348 20075ft 367kts
02-Sep-18 19:20 46.253157 -122.709061 348 18712ft 366kts
02-Sep-18 19:21 46.352124 -122.723377 355 16000ft 373kts
02-Sep-18 19:22 46.453564 -122.726991 354 14153ft 346kts
02-Sep-18 19:23 46.543670 -122.730356 354 13684ft 318kts
02-Sep-18 19:24 46.632062 -122.733508 354 13226ft 318kts
02-Sep-18 19:25 46.720230 -122.736685 354 12800ft 316kts
02-Sep-18 19:26 46.804712 -122.715401 34 12450ft 330kts
02-Sep-18 19:27 46.872443 -122.629507 39 11065ft 318kts
02-Sep-18 19:28 46.932293 -122.544660 41 10117ft 288kts
02-Sep-18 19:29 46.988710 -122.463249 27 8703ft 287kts
02-Sep-18 19:30 47.055214 -122.407169 25 7355ft 278kts
02-Sep-18 19:31 47.114788 -122.356713 26 6645ft 253kts
02-Sep-18 19:32 47.176809 -122.323752 15 5541ft 246kts
02-Sep-18 19:33 47.236948 -122.313114 359 4584ft 237kts
02-Sep-18 19:34 47.298958 -122.312532 358 3878ft 218kts
02-Sep-18 19:35 47.355364 -122.312008 358 2412ft 197kts
02-Sep-18 19:36 47.405175 -122.311452 359 1135ft 162kts
02-Sep-18 19:37 47.444048 -122.310917 356 436ft 120kts
02-Sep-18 19:38 47.455731 -122.307542 94 436ft 24kts
02-Sep-18 19:39 47.447908 -122.306284 181 436ft 34kts
02-Sep-18 19:40 47.442994 -122.303827 121 436ft 0kts
02-Sep-18 19:41 47.442880 -122.303616 130 436ft 0kts
02-Sep-18 19:42 47.442880 -122.303616 130 436ft 0kts
02-Sep-18 19:43 47.442880 -122.303616 130 436ft 0kts
02-Sep-18 19:44 47.442880 -122.303616 130 436ft 0kts
02-Sep-18 19:45 47.442880 -122.303616 130 436ft 0kts
02-Sep-18 19:46 47.442880 -122.303616 130 436ft 0kts
02-Sep-18 19:47 47.442880 -122.303616 130 436ft 0kts
02-Sep-18 19:48 47.442880 -122.303616 130 436ft 0kts
02-Sep-18 19:49 47.442880 -122.303616 130 436ft 0kts
02-Sep-18 19:51 47.442880 -122.303616 130 436ft 0kts
02-Sep-18 19:52 47.442880 -122.303616 130 436ft 0kts

Navigation Log

Ident Type
Flight plan parsing failed, navigation log unavailable